SBI3110 UNKL-UNAA
Flight info
| Callsign | SBI3110 |
|---|---|
| Flight time | 0h 30m |
| Altitude | 28000 |
| Route | IVRAS G808 MIKET A817 RINAG |
| Aircraft | A320/M-SDE3FGHIRWY/LB1 |
Departure
| Time | 2026-05-08 15:55 |
|---|---|
| Airport | Krasnoyarsk International Airport (UNKL) |
Arrival
| Time | 2026-05-08 16:25 |
|---|---|
| Airport | Abakan International Airport (UNAA) |
| Time | Latitude | Longitude | Altitude | Speed | Heading |
|---|---|---|---|---|---|
| 2026-05-08 15:22 | 56.18046 | 92.47596 | 951 ft | 0 kts | 201° |
| 2026-05-08 15:37 | 56.18052 | 92.47599 | 951 ft | 2 kts | 201° |
| 2026-05-08 15:37 | 56.18059 | 92.47605 | 950 ft | 0 kts | 201° |
| 2026-05-08 15:38 | 56.18060 | 92.47605 | 950 ft | 1 kts | 201° |
| 2026-05-08 15:38 | 56.18078 | 92.47619 | 950 ft | 3 kts | 203° |
| 2026-05-08 15:38 | 56.18100 | 92.47613 | 952 ft | 3 kts | 136° |
| 2026-05-08 15:38 | 56.18110 | 92.47590 | 951 ft | 0 kts | 115° |
| 2026-05-08 15:41 | 56.18109 | 92.47600 | 951 ft | 4 kts | 109° |
| 2026-05-08 15:41 | 56.18095 | 92.47664 | 939 ft | 5 kts | 112° |
| 2026-05-08 15:41 | 56.18080 | 92.47726 | 960 ft | 8 kts | 113° |
| 2026-05-08 15:41 | 56.18052 | 92.47847 | 951 ft | 10 kts | 113° |
| 2026-05-08 15:42 | 56.18026 | 92.47960 | 951 ft | 9 kts | 113° |
| 2026-05-08 15:42 | 56.17976 | 92.47977 | 949 ft | 9 kts | 188° |
| 2026-05-08 15:42 | 56.17877 | 92.47905 | 951 ft | 17 kts | 189° |
| 2026-05-08 15:42 | 56.17840 | 92.47976 | 951 ft | 8 kts | 105° |
| 2026-05-08 15:43 | 56.17798 | 92.48143 | 950 ft | 17 kts | 114° |
| 2026-05-08 15:43 | 56.17751 | 92.48333 | 951 ft | 17 kts | 114° |
| 2026-05-08 15:43 | 56.17706 | 92.48525 | 951 ft | 17 kts | 112° |
| 2026-05-08 15:43 | 56.17660 | 92.48719 | 951 ft | 17 kts | 113° |
| 2026-05-08 15:44 | 56.17614 | 92.48914 | 950 ft | 17 kts | 113° |
| 2026-05-08 15:44 | 56.17567 | 92.49114 | 950 ft | 18 kts | 114° |
| 2026-05-08 15:44 | 56.17517 | 92.49322 | 951 ft | 19 kts | 113° |
| 2026-05-08 15:44 | 56.17464 | 92.49544 | 951 ft | 20 kts | 113° |
| 2026-05-08 15:45 | 56.17397 | 92.49823 | 951 ft | 27 kts | 113° |
| 2026-05-08 15:45 | 56.17333 | 92.50090 | 951 ft | 23 kts | 113° |
| 2026-05-08 15:45 | 56.17281 | 92.50308 | 950 ft | 12 kts | 113° |
| 2026-05-08 15:45 | 56.17242 | 92.50420 | 951 ft | 10 kts | 153° |
| 2026-05-08 15:46 | 56.17220 | 92.50420 | 951 ft | 0 kts | 196° |
| 2026-05-08 15:49 | 56.17189 | 92.50404 | 951 ft | 10 kts | 196° |
| 2026-05-08 15:50 | 56.17154 | 92.50379 | 951 ft | 0 kts | 202° |
| 2026-05-08 15:51 | 56.17100 | 92.50340 | 949 ft | 18 kts | 203° |
| 2026-05-08 15:52 | 56.17084 | 92.50194 | 947 ft | 0 kts | 293° |
| 2026-05-08 15:52 | 56.17090 | 92.50172 | 948 ft | 4 kts | 295° |
| 2026-05-08 15:54 | 56.17090 | 92.50170 | 949 ft | 1 kts | 295° |
| 2026-05-08 15:55 | 56.17116 | 92.50061 | 948 ft | 32 kts | 292° |
| 2026-05-08 15:55 | 56.17693 | 92.47639 | 967 ft | 164 kts | 294° |
| 2026-05-08 15:55 | 56.18151 | 92.45733 | 1656 ft | 166 kts | 293° |
| 2026-05-08 15:56 | 56.18613 | 92.43841 | 2493 ft | 169 kts | 293° |
| 2026-05-08 15:56 | 56.19102 | 92.41801 | 2955 ft | 189 kts | 292° |
| 2026-05-08 15:56 | 56.19624 | 92.39461 | 3395 ft | 213 kts | 287° |
| 2026-05-08 15:56 | 56.19655 | 92.36726 | 3996 ft | 233 kts | 253° |
| 2026-05-08 15:57 | 56.18683 | 92.34241 | 4581 ft | 261 kts | 219° |
| 2026-05-08 15:57 | 56.16945 | 92.33046 | 5389 ft | 277 kts | 191° |
| 2026-05-08 15:57 | 56.15003 | 92.33054 | 6445 ft | 282 kts | 178° |
| 2026-05-08 15:57 | 56.13042 | 92.33535 | 7422 ft | 287 kts | 174° |
| 2026-05-08 15:58 | 56.11089 | 92.34130 | 8399 ft | 290 kts | 174° |
| 2026-05-08 15:58 | 56.09057 | 92.34721 | 9384 ft | 294 kts | 175° |
| 2026-05-08 15:58 | 56.07020 | 92.35233 | 10234 ft | 301 kts | 176° |
| 2026-05-08 15:58 | 56.05604 | 92.35540 | 10476 ft | 317 kts | 177° |
| 2026-05-08 15:59 | 56.02591 | 92.36101 | 11209 ft | 336 kts | 178° |
| 2026-05-08 15:59 | 56.01014 | 92.36371 | 11754 ft | 339 kts | 178° |
| 2026-05-08 15:59 | 55.98651 | 92.36764 | 12612 ft | 343 kts | 178° |
| 2026-05-08 15:59 | 55.96263 | 92.37155 | 13470 ft | 347 kts | 178° |
| 2026-05-08 16:00 | 55.93848 | 92.37549 | 14239 ft | 351 kts | 178° |
| 2026-05-08 16:00 | 55.91398 | 92.37947 | 14940 ft | 356 kts | 178° |
| 2026-05-08 16:00 | 55.88919 | 92.38353 | 15613 ft | 361 kts | 178° |
| 2026-05-08 16:00 | 55.86398 | 92.38766 | 16291 ft | 366 kts | 178° |
| 2026-05-08 16:01 | 55.83844 | 92.39182 | 16978 ft | 371 kts | 178° |
| 2026-05-08 16:01 | 55.81253 | 92.39605 | 17652 ft | 377 kts | 177° |
| 2026-05-08 16:01 | 55.78630 | 92.40039 | 18295 ft | 382 kts | 177° |
| 2026-05-08 16:01 | 55.75962 | 92.40484 | 18882 ft | 386 kts | 177° |
| 2026-05-08 16:02 | 55.73275 | 92.40929 | 19501 ft | 390 kts | 177° |
| 2026-05-08 16:02 | 55.70563 | 92.41372 | 20130 ft | 393 kts | 178° |
| 2026-05-08 16:02 | 55.67827 | 92.41816 | 20764 ft | 397 kts | 178° |
| 2026-05-08 16:02 | 55.65064 | 92.42267 | 21378 ft | 400 kts | 178° |
| 2026-05-08 16:03 | 55.62278 | 92.42724 | 21987 ft | 404 kts | 178° |
| 2026-05-08 16:03 | 55.59466 | 92.43187 | 22596 ft | 408 kts | 177° |
| 2026-05-08 16:03 | 55.56630 | 92.43655 | 23190 ft | 412 kts | 178° |
| 2026-05-08 16:03 | 55.53766 | 92.44127 | 23709 ft | 416 kts | 178° |
| 2026-05-08 16:04 | 55.50872 | 92.44600 | 24198 ft | 419 kts | 178° |
| 2026-05-08 16:04 | 55.47962 | 92.45072 | 24693 ft | 422 kts | 178° |
| 2026-05-08 16:04 | 55.45027 | 92.45551 | 25176 ft | 425 kts | 178° |
| 2026-05-08 16:04 | 55.42076 | 92.46037 | 25647 ft | 427 kts | 178° |
| 2026-05-08 16:05 | 55.39106 | 92.46259 | 26105 ft | 427 kts | 185° |
| 2026-05-08 16:05 | 55.36160 | 92.45668 | 26563 ft | 425 kts | 195° |
| 2026-05-08 16:05 | 55.33281 | 92.44453 | 27034 ft | 426 kts | 198° |
| 2026-05-08 16:05 | 55.30401 | 92.43198 | 27479 ft | 428 kts | 198° |
| 2026-05-08 16:06 | 55.27502 | 92.41943 | 27846 ft | 430 kts | 197° |
| 2026-05-08 16:06 | 55.24604 | 92.40700 | 27922 ft | 423 kts | 197° |
| 2026-05-08 16:06 | 55.21805 | 92.39519 | 27931 ft | 409 kts | 197° |
| 2026-05-08 16:06 | 55.19051 | 92.38362 | 27934 ft | 405 kts | 197° |
| 2026-05-08 16:07 | 55.16315 | 92.37204 | 27935 ft | 404 kts | 198° |
| 2026-05-08 16:07 | 55.13590 | 92.36037 | 27936 ft | 403 kts | 198° |
| 2026-05-08 16:07 | 55.10863 | 92.34860 | 27915 ft | 408 kts | 198° |
| 2026-05-08 16:07 | 55.08093 | 92.33663 | 27364 ft | 413 kts | 198° |
| 2026-05-08 16:08 | 55.05289 | 92.32461 | 26681 ft | 413 kts | 197° |
| 2026-05-08 16:08 | 55.02517 | 92.31292 | 26226 ft | 407 kts | 197° |
| 2026-05-08 16:08 | 54.99776 | 92.30141 | 25745 ft | 403 kts | 197° |
| 2026-05-08 16:08 | 54.97068 | 92.29004 | 25272 ft | 399 kts | 197° |
| 2026-05-08 16:09 | 54.94376 | 92.27871 | 24787 ft | 396 kts | 197° |
| 2026-05-08 16:09 | 54.91703 | 92.26746 | 24291 ft | 395 kts | 197° |
| 2026-05-08 16:09 | 54.89038 | 92.25624 | 23786 ft | 393 kts | 197° |
| 2026-05-08 16:09 | 54.86386 | 92.24511 | 23231 ft | 392 kts | 197° |
| 2026-05-08 16:10 | 54.83741 | 92.23401 | 22727 ft | 389 kts | 197° |
| 2026-05-08 16:10 | 54.81125 | 92.22303 | 22239 ft | 385 kts | 197° |
| 2026-05-08 16:10 | 54.78535 | 92.21224 | 21756 ft | 382 kts | 197° |
| 2026-05-08 16:10 | 54.75958 | 92.20156 | 21264 ft | 379 kts | 197° |
| 2026-05-08 16:11 | 54.73408 | 92.19095 | 20801 ft | 376 kts | 197° |
| 2026-05-08 16:11 | 54.70873 | 92.18040 | 20330 ft | 373 kts | 197° |
| 2026-05-08 16:11 | 54.68359 | 92.16992 | 19861 ft | 370 kts | 197° |
| 2026-05-08 16:11 | 54.65863 | 92.15948 | 19398 ft | 368 kts | 197° |
| 2026-05-08 16:12 | 54.63381 | 92.14910 | 18943 ft | 366 kts | 197° |
| 2026-05-08 16:12 | 54.60910 | 92.13882 | 18483 ft | 364 kts | 196° |
| 2026-05-08 16:12 | 54.58449 | 92.12859 | 17995 ft | 363 kts | 196° |
| 2026-05-08 16:12 | 54.56006 | 92.11842 | 17546 ft | 359 kts | 196° |
| 2026-05-08 16:13 | 54.53588 | 92.10839 | 17137 ft | 355 kts | 196° |
| 2026-05-08 16:13 | 54.51189 | 92.09851 | 16667 ft | 353 kts | 196° |
| 2026-05-08 16:13 | 54.48806 | 92.08875 | 16223 ft | 351 kts | 196° |
| 2026-05-08 16:13 | 54.46443 | 92.07905 | 15812 ft | 348 kts | 196° |
| 2026-05-08 16:14 | 54.44101 | 92.06880 | 15391 ft | 345 kts | 201° |
| 2026-05-08 16:14 | 54.41931 | 92.05227 | 14981 ft | 340 kts | 212° |
| 2026-05-08 16:14 | 54.39888 | 92.03208 | 14565 ft | 338 kts | 212° |
| 2026-05-08 16:14 | 54.37854 | 92.01203 | 14155 ft | 336 kts | 212° |
| 2026-05-08 16:15 | 54.35838 | 91.99214 | 13748 ft | 334 kts | 212° |
| 2026-05-08 16:15 | 54.33822 | 91.97228 | 13309 ft | 332 kts | 212° |
| 2026-05-08 16:15 | 54.31828 | 91.95273 | 12897 ft | 329 kts | 212° |
| 2026-05-08 16:15 | 54.29847 | 91.93338 | 12486 ft | 326 kts | 212° |
| 2026-05-08 16:16 | 54.27886 | 91.91426 | 12079 ft | 323 kts | 212° |
| 2026-05-08 16:16 | 54.25938 | 91.89529 | 11667 ft | 321 kts | 212° |
| 2026-05-08 16:16 | 54.24022 | 91.87668 | 11429 ft | 313 kts | 212° |
| 2026-05-08 16:16 | 54.22146 | 91.85838 | 11108 ft | 308 kts | 212° |
| 2026-05-08 16:17 | 54.20291 | 91.84027 | 10737 ft | 306 kts | 211° |
| 2026-05-08 16:17 | 54.19065 | 91.82833 | 10302 ft | 310 kts | 211° |
| 2026-05-08 16:17 | 54.16576 | 91.80413 | 9710 ft | 296 kts | 211° |
| 2026-05-08 16:17 | 54.14815 | 91.78702 | 9531 ft | 290 kts | 211° |
| 2026-05-08 16:18 | 54.13079 | 91.76991 | 9192 ft | 288 kts | 214° |
| 2026-05-08 16:18 | 54.11468 | 91.75001 | 8810 ft | 285 kts | 218° |
| 2026-05-08 16:18 | 54.09862 | 91.72988 | 8424 ft | 285 kts | 218° |
| 2026-05-08 16:18 | 54.08266 | 91.70999 | 8033 ft | 283 kts | 217° |
| 2026-05-08 16:19 | 54.06684 | 91.69028 | 7696 ft | 281 kts | 218° |
| 2026-05-08 16:19 | 54.05111 | 91.67069 | 7306 ft | 280 kts | 217° |
| 2026-05-08 16:19 | 54.03540 | 91.65118 | 6941 ft | 279 kts | 217° |
| 2026-05-08 16:19 | 54.01978 | 91.63184 | 6546 ft | 277 kts | 217° |
| 2026-05-08 16:20 | 54.00426 | 91.61262 | 6163 ft | 275 kts | 217° |
| 2026-05-08 16:20 | 53.98841 | 91.59476 | 5795 ft | 272 kts | 212° |
| 2026-05-08 16:20 | 53.97230 | 91.57844 | 5468 ft | 268 kts | 211° |
| 2026-05-08 16:20 | 53.95626 | 91.56267 | 5144 ft | 264 kts | 211° |
| 2026-05-08 16:21 | 53.94050 | 91.54732 | 4840 ft | 259 kts | 211° |
| 2026-05-08 16:21 | 53.92501 | 91.53222 | 4508 ft | 254 kts | 211° |
| 2026-05-08 16:21 | 53.90994 | 91.51773 | 4197 ft | 242 kts | 208° |
| 2026-05-08 16:21 | 53.89511 | 91.50541 | 3904 ft | 233 kts | 206° |
| 2026-05-08 16:22 | 53.88074 | 91.49418 | 3654 ft | 220 kts | 205° |
| 2026-05-08 16:22 | 53.86741 | 91.48396 | 3626 ft | 200 kts | 206° |
| 2026-05-08 16:22 | 53.85501 | 91.47454 | 3474 ft | 195 kts | 205° |
| 2026-05-08 16:22 | 53.84249 | 91.46497 | 3007 ft | 197 kts | 206° |
| 2026-05-08 16:23 | 53.83045 | 91.45565 | 2668 ft | 182 kts | 206° |
| 2026-05-08 16:23 | 53.81949 | 91.44711 | 2433 ft | 163 kts | 206° |
| 2026-05-08 16:23 | 53.80960 | 91.43940 | 2199 ft | 152 kts | 206° |
| 2026-05-08 16:23 | 53.80018 | 91.43205 | 1983 ft | 147 kts | 206° |
| 2026-05-08 16:24 | 53.79099 | 91.42488 | 1775 ft | 144 kts | 206° |
| 2026-05-08 16:24 | 53.78189 | 91.41779 | 1569 ft | 144 kts | 206° |
| 2026-05-08 16:24 | 53.77284 | 91.41065 | 1305 ft | 144 kts | 207° |
| 2026-05-08 16:24 | 53.76381 | 91.40351 | 1120 ft | 144 kts | 206° |
| 2026-05-08 16:25 | 53.75475 | 91.39643 | 924 ft | 144 kts | 205° |
| 2026-05-08 16:25 | 53.74601 | 91.38958 | 803 ft | 124 kts | 204° |
| 2026-05-08 16:25 | 53.73989 | 91.38499 | 806 ft | 71 kts | 204° |
| 2026-05-08 16:25 | 53.73690 | 91.38274 | 803 ft | 31 kts | 204° |
| 2026-05-08 16:26 | 53.73495 | 91.38126 | 804 ft | 30 kts | 205° |
| 2026-05-08 16:26 | 53.73309 | 91.37974 | 805 ft | 30 kts | 200° |
| 2026-05-08 16:26 | 53.73133 | 91.37911 | 803 ft | 11 kts | 198° |
| 2026-05-08 16:26 | 53.73127 | 91.37890 | 803 ft | 2 kts | 263° |
| 2026-05-08 16:27 | 53.73142 | 91.37877 | 803 ft | 3 kts | 357° |
| 2026-05-08 16:27 | 53.73232 | 91.37918 | 803 ft | 20 kts | 25° |
| 2026-05-08 16:27 | 53.73358 | 91.38012 | 802 ft | 21 kts | 22° |
| 2026-05-08 16:27 | 53.73496 | 91.38122 | 803 ft | 25 kts | 27° |
| 2026-05-08 16:28 | 53.73726 | 91.38305 | 803 ft | 46 kts | 25° |
| 2026-05-08 16:28 | 53.74009 | 91.38523 | 806 ft | 35 kts | 25° |
| 2026-05-08 16:28 | 53.74221 | 91.38709 | 805 ft | 35 kts | 30° |
| 2026-05-08 16:28 | 53.74380 | 91.38980 | 803 ft | 28 kts | 55° |
| 2026-05-08 16:29 | 53.74435 | 91.39108 | 802 ft | 0 kts | 36° |
| 2026-05-08 16:29 | 53.74437 | 91.39110 | 802 ft | 3 kts | 35° |
| 2026-05-08 16:29 | 53.74448 | 91.39122 | 802 ft | 0 kts | 31° |
| 2026-05-08 16:30 | 53.74449 | 91.39122 | 802 ft | 0 kts | 24° |
| 2026-05-08 16:31 | 53.74464 | 91.39143 | 802 ft | 7 kts | 44° |
| 2026-05-08 16:31 | 53.74552 | 91.39252 | 802 ft | 21 kts | 25° |
| 2026-05-08 16:31 | 53.74675 | 91.39355 | 801 ft | 17 kts | 24° |
| 2026-05-08 16:32 | 53.74770 | 91.39427 | 801 ft | 16 kts | 24° |
| 2026-05-08 16:32 | 53.74837 | 91.39478 | 801 ft | 0 kts | 24° |
| 2026-05-08 16:32 | 53.74842 | 91.39481 | 801 ft | 4 kts | 24° |
| 2026-05-08 16:32 | 53.74906 | 91.39530 | 800 ft | 12 kts | 24° |
| 2026-05-08 16:33 | 53.74925 | 91.39634 | 800 ft | 13 kts | 123° |
| 2026-05-08 16:33 | 53.74917 | 91.39749 | 800 ft | 8 kts | 78° |
| 2026-05-08 16:33 | 53.74933 | 91.39832 | 800 ft | 7 kts | 70° |
| 2026-05-08 16:33 | 53.74951 | 91.39903 | 800 ft | 6 kts | 48° |
| 2026-05-08 16:34 | 53.74983 | 91.39912 | 800 ft | 4 kts | 354° |
| 2026-05-08 16:34 | 53.75010 | 91.39900 | 800 ft | 4 kts | 340° |
| 2026-05-08 16:34 | 53.75027 | 91.39890 | 800 ft | 0 kts | 340° |